sensor_id;sensor_type;location;lat;lon;timestamp;pressure;altitude;pressure_sealevel;temperature;humidity
10310;BME280;5200;43.236;27.986;2023-03-03T00:01:31;100452.13;;;3.56;100.00
10310;BME280;5200;43.236;27.986;2023-03-03T00:03:58;100437.59;;;3.52;100.00
10310;BME280;5200;43.236;27.986;2023-03-03T00:06:25;100409.66;;;3.39;100.00
10310;BME280;5200;43.236;27.986;2023-03-03T00:08:54;100413.91;;;3.41;100.00
10310;BME280;5200;43.236;27.986;2023-03-03T00:11:21;100448.47;;;3.60;100.00
10310;BME280;5200;43.236;27.986;2023-03-03T00:13:49;100434.69;;;3.58;100.00
10310;BME280;5200;43.236;27.986;2023-03-03T00:16:23;100407.03;;;3.39;100.00
10310;BME280;5200;43.236;27.986;2023-03-03T00:18:51;100428.78;;;3.54;100.00
10310;BME280;5200;43.236;27.986;2023-03-03T00:21:29;100412.59;;;3.49;100.00
10310;BME280;5200;43.236;27.986;2023-03-03T00:24:19;100425.94;;;3.59;100.00
10310;BME280;5200;43.236;27.986;2023-03-03T00:26:47;100429.38;;;3.59;100.00
10310;BME280;5200;43.236;27.986;2023-03-03T00:29:31;100415.78;;;3.54;100.00
10310;BME280;5200;43.236;27.986;2023-03-03T00:32:22;100422.44;;;3.60;100.00
10310;BME280;5200;43.236;27.986;2023-03-03T00:34:50;100380.09;;;3.41;100.00
10310;BME280;5200;43.236;27.986;2023-03-03T00:37:29;100412.03;;;3.60;100.00
10310;BME280;5200;43.236;27.986;2023-03-03T00:42:48;100404.94;;;3.62;100.00
10310;BME280;5200;43.236;27.986;2023-03-03T00:45:25;100400.63;;;3.63;100.00
10310;BME280;5200;43.236;27.986;2023-03-03T00:47:55;100397.16;;;3.62;100.00
10310;BME280;5200;43.236;27.986;2023-03-03T00:50:26;100398.84;;;3.63;100.00
10310;BME280;5200;43.236;27.986;2023-03-03T00:53:02;100396.06;;;3.66;100.00
10310;BME280;5200;43.236;27.986;2023-03-03T00:55:30;100374.97;;;3.55;100.00
10310;BME280;5200;43.236;27.986;2023-03-03T00:57:57;100376.75;;;3.54;100.00
10310;BME280;5200;43.236;27.986;2023-03-03T01:00:24;100371.47;;;3.56;100.00
10310;BME280;5200;43.236;27.986;2023-03-03T01:02:51;100374.91;;;3.56;100.00
10310;BME280;5200;43.236;27.986;2023-03-03T01:05:20;100389.94;;;3.67;100.00
10310;BME280;5200;43.236;27.986;2023-03-03T01:07:47;100373.91;;;3.59;100.00
10310;BME280;5200;43.236;27.986;2023-03-03T01:10:13;100384.00;;;3.65;100.00
10310;BME280;5200;43.236;27.986;2023-03-03T01:12:40;100380.44;;;3.66;100.00
10310;BME280;5200;43.236;27.986;2023-03-03T01:15:09;100374.34;;;3.67;100.00
10310;BME280;5200;43.236;27.986;2023-03-03T01:17:36;100370.97;;;3.65;100.00
10310;BME280;5200;43.236;27.986;2023-03-03T01:20:05;100362.34;;;3.65;100.00
10310;BME280;5200;43.236;27.986;2023-03-03T01:22:34;100369.22;;;3.66;100.00
10310;BME280;5200;43.236;27.986;2023-03-03T01:25:01;100342.03;;;3.55;100.00
10310;BME280;5200;43.236;27.986;2023-03-03T01:27:29;100336.38;;;3.47;100.00
10310;BME280;5200;43.236;27.986;2023-03-03T01:29:57;100342.34;;;3.49;100.00
10310;BME280;5200;43.236;27.986;2023-03-03T01:32:24;100337.47;;;3.43;100.00
10310;BME280;5200;43.236;27.986;2023-03-03T01:34:51;100359.06;;;3.61;100.00
10310;BME280;5200;43.236;27.986;2023-03-03T01:37:18;100353.91;;;3.59;100.00
10310;BME280;5200;43.236;27.986;2023-03-03T01:39:49;100333.13;;;3.44;100.00
10310;BME280;5200;43.236;27.986;2023-03-03T01:42:16;100330.53;;;3.44;100.00
10310;BME280;5200;43.236;27.986;2023-03-03T01:44:44;100355.69;;;3.59;100.00
10310;BME280;5200;43.236;27.986;2023-03-03T01:47:12;100346.88;;;3.62;100.00
10310;BME280;5200;43.236;27.986;2023-03-03T01:49:44;100315.66;;;3.46;100.00
10310;BME280;5200;43.236;27.986;2023-03-03T01:52:24;100334.97;;;3.57;100.00
10310;BME280;5200;43.236;27.986;2023-03-03T01:54:56;100338.81;;;3.66;100.00
10310;BME280;5200;43.236;27.986;2023-03-03T01:57:28;100342.34;;;3.65;100.00
10310;BME280;5200;43.236;27.986;2023-03-03T01:59:59;100340.66;;;3.64;100.00
10310;BME280;5200;43.236;27.986;2023-03-03T02:02:28;100344.94;;;3.65;100.00
10310;BME280;5200;43.236;27.986;2023-03-03T02:04:55;100310.44;;;3.46;100.00
10310;BME280;5200;43.236;27.986;2023-03-03T02:07:24;100316.50;;;3.46;100.00
10310;BME280;5200;43.236;27.986;2023-03-03T02:09:58;100331.94;;;3.49;100.00
10310;BME280;5200;43.236;27.986;2023-03-03T02:12:33;100344.13;;;3.65;100.00
10310;BME280;5200;43.236;27.986;2023-03-03T02:15:01;100340.91;;;3.59;100.00
10310;BME280;5200;43.236;27.986;2023-03-03T02:17:34;100338.22;;;3.61;100.00
10310;BME280;5200;43.236;27.986;2023-03-03T02:20:05;100334.28;;;3.54;100.00
10310;BME280;5200;43.236;27.986;2023-03-03T02:22:37;100342.50;;;3.62;100.00
10310;BME280;5200;43.236;27.986;2023-03-03T02:25:10;100335.81;;;3.58;100.00
10310;BME280;5200;43.236;27.986;2023-03-03T02:27:40;100328.66;;;3.62;100.00
10310;BME280;5200;43.236;27.986;2023-03-03T02:30:10;100301.06;;;3.43;100.00
10310;BME280;5200;43.236;27.986;2023-03-03T02:32:37;100327.81;;;3.61;100.00
10310;BME280;5200;43.236;27.986;2023-03-03T02:35:24;100332.97;;;3.63;100.00
10310;BME280;5200;43.236;27.986;2023-03-03T02:37:51;100318.50;;;3.57;100.00
10310;BME280;5200;43.236;27.986;2023-03-03T02:40:20;100328.91;;;3.57;100.00
10310;BME280;5200;43.236;27.986;2023-03-03T02:42:52;100334.88;;;3.59;100.00
10310;BME280;5200;43.236;27.986;2023-03-03T02:45:20;100335.81;;;3.58;100.00
10310;BME280;5200;43.236;27.986;2023-03-03T02:47:48;100340.50;;;3.67;100.00
10310;BME280;5200;43.236;27.986;2023-03-03T02:50:16;100335.13;;;3.70;100.00
10310;BME280;5200;43.236;27.986;2023-03-03T02:52:43;100331.94;;;3.65;100.00
10310;BME280;5200;43.236;27.986;2023-03-03T02:55:09;100332.59;;;3.69;100.00
10310;BME280;5200;43.236;27.986;2023-03-03T02:57:36;100312.66;;;3.53;100.00
10310;BME280;5200;43.236;27.986;2023-03-03T03:00:06;100341.91;;;3.73;100.00
10310;BME280;5200;43.236;27.986;2023-03-03T03:02:33;100335.13;;;3.70;100.00
10310;BME280;5200;43.236;27.986;2023-03-03T03:05:00;100336.06;;;3.69;100.00
10310;BME280;5200;43.236;27.986;2023-03-03T03:07:27;100332.59;;;3.69;100.00
10310;BME280;5200;43.236;27.986;2023-03-03T03:09:53;100332.03;;;3.64;100.00
10310;BME280;5200;43.236;27.986;2023-03-03T03:12:20;100329.22;;;3.67;100.00
10310;BME280;5200;43.236;27.986;2023-03-03T03:14:47;100327.56;;;3.66;100.00
10310;BME280;5200;43.236;27.986;2023-03-03T03:17:15;100303.25;;;3.51;100.00
10310;BME280;5200;43.236;27.986;2023-03-03T03:19:42;100312.66;;;3.53;100.00
10310;BME280;5200;43.236;27.986;2023-03-03T03:22:09;100297.72;;;3.41;100.00
10310;BME280;5200;43.236;27.986;2023-03-03T03:24:35;100318.69;;;3.54;100.00
10310;BME280;5200;43.236;27.986;2023-03-03T03:27:02;100318.69;;;3.54;100.00
10310;BME280;5200;43.236;27.986;2023-03-03T03:29:29;100317.94;;;3.52;100.00
10310;BME280;5200;43.236;27.986;2023-03-03T03:31:56;100317.09;;;3.51;100.00
10310;BME280;5200;43.236;27.986;2023-03-03T03:34:24;100317.16;;;3.50;100.00
10310;BME280;5200;43.236;27.986;2023-03-03T03:36:51;100306.94;;;3.47;100.00
10310;BME280;5200;43.236;27.986;2023-03-03T03:39:18;100316.16;;;3.52;100.00
10310;BME280;5200;43.236;27.986;2023-03-03T03:41:45;100309.09;;;3.54;100.00
10310;BME280;5200;43.236;27.986;2023-03-03T03:44:11;100299.53;;;3.55;100.00
10310;BME280;5200;43.236;27.986;2023-03-03T03:46:38;100303.91;;;3.54;100.00
10310;BME280;5200;43.236;27.986;2023-03-03T03:49:05;100303.91;;;3.54;100.00
10310;BME280;5200;43.236;27.986;2023-03-03T03:51:33;100309.03;;;3.56;100.00
10310;BME280;5200;43.236;27.986;2023-03-03T03:54:02;100306.44;;;3.56;100.00
10310;BME280;5200;43.236;27.986;2023-03-03T03:56:29;100306.44;;;3.56;100.00
10310;BME280;5200;43.236;27.986;2023-03-03T03:58:56;100293.69;;;3.51;100.00
10310;BME280;5200;43.236;27.986;2023-03-03T04:01:22;100303.66;;;3.59;100.00
10310;BME280;5200;43.236;27.986;2023-03-03T04:03:49;100295.00;;;3.58;100.00
10310;BME280;5200;43.236;27.986;2023-03-03T04:06:16;100292.66;;;3.54;100.00
10310;BME280;5200;43.236;27.986;2023-03-03T04:08:44;100296.69;;;3.59;100.00
10310;BME280;5200;43.236;27.986;2023-03-03T04:11:11;100294.06;;;3.59;100.00
10310;BME280;5200;43.236;27.986;2023-03-03T04:13:38;100294.34;;;3.55;100.00
10310;BME280;5200;43.236;27.986;2023-03-03T04:16:05;100288.22;;;3.56;100.00
10310;BME280;5200;43.236;27.986;2023-03-03T04:18:32;100272.38;;;3.45;100.00
10310;BME280;5200;43.236;27.986;2023-03-03T04:20:59;100254.09;;;3.30;100.00
10310;BME280;5200;43.236;27.986;2023-03-03T04:23:26;100254.09;;;3.30;100.00
10310;BME280;5200;43.236;27.986;2023-03-03T04:25:54;100276.06;;;3.41;100.00
10310;BME280;5200;43.236;27.986;2023-03-03T04:28:21;100269.53;;;3.33;100.00
10310;BME280;5200;43.236;27.986;2023-03-03T04:30:49;100261.31;;;3.25;100.00
10310;BME280;5200;43.236;27.986;2023-03-03T04:33:16;100246.88;;;3.20;100.00
10310;BME280;5200;43.236;27.986;2023-03-03T04:35:43;100283.59;;;3.45;100.00
10310;BME280;5200;43.236;27.986;2023-03-03T04:38:10;100281.25;;;3.41;100.00
10310;BME280;5200;43.236;27.986;2023-03-03T04:40:39;100262.84;;;3.29;100.00
10310;BME280;5200;43.236;27.986;2023-03-03T04:43:08;100275.66;;;3.32;100.00
10310;BME280;5200;43.236;27.986;2023-03-03T04:45:35;100280.50;;;3.38;100.00
10310;BME280;5200;43.236;27.986;2023-03-03T04:48:03;100288.06;;;3.43;100.00
10310;BME280;5200;43.236;27.986;2023-03-03T04:50:29;100268.03;;;3.29;100.00
10310;BME280;5200;43.236;27.986;2023-03-03T04:52:56;100277.06;;;3.38;100.00
10310;BME280;5200;43.236;27.986;2023-03-03T04:55:23;100286.13;;;3.47;100.00
10310;BME280;5200;43.236;27.986;2023-03-03T04:57:50;100265.16;;;3.34;100.00
10310;BME280;5200;43.236;27.986;2023-03-03T05:00:19;100255.09;;;3.28;100.00
10310;BME280;5200;43.236;27.986;2023-03-03T05:02:47;100291.66;;;3.56;100.00
10310;BME280;5200;43.236;27.986;2023-03-03T05:05:14;100291.59;;;3.58;100.00
10310;BME280;5200;43.236;27.986;2023-03-03T05:07:41;100280.50;;;3.54;100.00
10310;BME280;5200;43.236;27.986;2023-03-03T05:10:09;100286.94;;;3.63;100.00
10310;BME280;5200;43.236;27.986;2023-03-03T05:12:36;100280.41;;;3.56;100.00
10310;BME280;5200;43.236;27.986;2023-03-03T05:15:03;100256.00;;;3.43;100.00
10310;BME280;5200;43.236;27.986;2023-03-03T05:17:32;100297.03;;;3.69;100.00
10310;BME280;5200;43.236;27.986;2023-03-03T05:19:59;100266.66;;;3.54;100.00
10310;BME280;5200;43.236;27.986;2023-03-03T05:22:26;100278.81;;;3.69;100.00
10310;BME280;5200;43.236;27.986;2023-03-03T05:24:52;100298.34;;;3.76;100.00
10310;BME280;5200;43.236;27.986;2023-03-03T05:27:19;100301.69;;;3.78;100.00
10310;BME280;5200;43.236;27.986;2023-03-03T05:29:46;100300.78;;;3.79;100.00
10310;BME280;5200;43.236;27.986;2023-03-03T05:32:13;100265.38;;;3.61;100.00
10310;BME280;5200;43.236;27.986;2023-03-03T05:34:42;100273.88;;;3.65;100.00
10310;BME280;5200;43.236;27.986;2023-03-03T05:37:08;100278.06;;;3.67;100.00
10310;BME280;5200;43.236;27.986;2023-03-03T05:39:35;100298.09;;;3.81;100.00
10310;BME280;5200;43.236;27.986;2023-03-03T05:42:02;100280.28;;;3.73;100.00
10310;BME280;5200;43.236;27.986;2023-03-03T05:44:31;100297.66;;;3.89;100.00
10310;BME280;5200;43.236;27.986;2023-03-03T05:46:58;100298.97;;;3.96;100.00
10310;BME280;5200;43.236;27.986;2023-03-03T05:49:25;100279.88;;;3.81;100.00
10310;BME280;5200;43.236;27.986;2023-03-03T05:51:53;100279.19;;;3.77;100.00
10310;BME280;5200;43.236;27.986;2023-03-03T05:54:20;100310.72;;;4.03;100.00
10310;BME280;5200;43.236;27.986;2023-03-03T05:56:47;100299.72;;;3.98;100.00
10310;BME280;5200;43.236;27.986;2023-03-03T05:59:14;100307.38;;;4.15;100.00
10310;BME280;5200;43.236;27.986;2023-03-03T06:01:40;100315.75;;;4.20;100.00
10310;BME280;5200;43.236;27.986;2023-03-03T06:04:07;100255.47;;;3.98;100.00
10310;BME280;5200;43.236;27.986;2023-03-03T06:06:34;100297.28;;;4.25;100.00
10310;BME280;5200;43.236;27.986;2023-03-03T06:09:03;100301.66;;;4.39;100.00
10310;BME280;5200;43.236;27.986;2023-03-03T06:11:30;100302.97;;;4.46;100.00
10310;BME280;5200;43.236;27.986;2023-03-03T06:13:57;100304.13;;;4.56;100.00
10310;BME280;5200;43.236;27.986;2023-03-03T06:16:24;100309.16;;;4.59;100.00
10310;BME280;5200;43.236;27.986;2023-03-03T06:18:51;100302.25;;;4.58;100.00
10310;BME280;5200;43.236;27.986;2023-03-03T06:21:18;100310.44;;;4.66;100.00
10310;BME280;5200;43.236;27.986;2023-03-03T06:23:44;100310.38;;;4.68;100.00
10310;BME280;5200;43.236;27.986;2023-03-03T06:26:13;100308.41;;;4.72;100.00
10310;BME280;5200;43.236;27.986;2023-03-03T06:28:39;100265.59;;;4.47;100.00
10310;BME280;5200;43.236;27.986;2023-03-03T06:31:06;100305.22;;;4.52;100.00
10310;BME280;5200;43.236;27.986;2023-03-03T06:33:33;100312.75;;;4.42;100.00
10310;BME280;5200;43.236;27.986;2023-03-03T06:36:00;100303.91;;;4.45;100.00
10310;BME280;5200;43.236;27.986;2023-03-03T06:38:26;100308.31;;;4.59;100.00
10310;BME280;5200;43.236;27.986;2023-03-03T06:40:53;100318.75;;;4.59;100.00
10310;BME280;5200;43.236;27.986;2023-03-03T06:43:21;100287.34;;;4.46;100.00
10310;BME280;5200;43.236;27.986;2023-03-03T06:45:48;100305.03;;;4.55;100.00
10310;BME280;5200;43.236;27.986;2023-03-03T06:48:15;100314.16;;;4.62;100.00
10310;BME280;5200;43.236;27.986;2023-03-03T06:50:42;100292.56;;;4.46;100.00
10310;BME280;5200;43.236;27.986;2023-03-03T06:53:11;100281.94;;;4.49;100.00
10310;BME280;5200;43.236;27.986;2023-03-03T06:55:38;100323.84;;;4.75;100.00
10310;BME280;5200;43.236;27.986;2023-03-03T06:58:11;100287.19;;;4.78;100.00
10310;BME280;5200;43.236;27.986;2023-03-03T07:00:40;100306.25;;;4.93;100.00
10310;BME280;5200;43.236;27.986;2023-03-03T07:03:13;100288.66;;;4.82;100.00
10310;BME280;5200;43.236;27.986;2023-03-03T07:05:41;100306.91;;;4.96;100.00
10310;BME280;5200;43.236;27.986;2023-03-03T07:08:13;100289.94;;;4.89;100.00
10310;BME280;5200;43.236;27.986;2023-03-03T07:10:41;100281.28;;;4.88;100.00
10310;BME280;5200;43.236;27.986;2023-03-03T07:13:17;100297.94;;;5.00;100.00
10310;BME280;5200;43.236;27.986;2023-03-03T07:15:47;100308.03;;;5.06;100.00
10310;BME280;5200;43.236;27.986;2023-03-03T07:18:28;100281.84;;;4.94;100.00
10310;BME280;5200;43.236;27.986;2023-03-03T07:20:57;100277.00;;;5.02;100.00
10310;BME280;5200;43.236;27.986;2023-03-03T07:23:27;100307.16;;;5.20;100.00
10310;BME280;5200;43.236;27.986;2023-03-03T07:25:55;100282.84;;;5.05;100.00
10310;BME280;5200;43.236;27.986;2023-03-03T07:28:24;100301.19;;;5.18;100.00
10310;BME280;5200;43.236;27.986;2023-03-03T07:30:54;100283.06;;;4.88;100.00
10310;BME280;5200;43.236;27.986;2023-03-03T07:33:25;100300.75;;;5.12;100.00
10310;BME280;5200;43.236;27.986;2023-03-03T07:35:53;100272.00;;;4.99;100.00
10310;BME280;5200;43.236;27.986;2023-03-03T07:38:24;100291.91;;;5.00;100.00
10310;BME280;5200;43.236;27.986;2023-03-03T07:40:55;100266.69;;;4.72;100.00
10310;BME280;5200;43.236;27.986;2023-03-03T07:43:33;100265.03;;;4.71;100.00
10310;BME280;5200;43.236;27.986;2023-03-03T07:46:16;100257.75;;;4.76;100.00
10310;BME280;5200;43.236;27.986;2023-03-03T07:48:47;100253.84;;;4.83;100.00
10310;BME280;5200;43.236;27.986;2023-03-03T07:51:20;100278.28;;;5.09;100.00
10310;BME280;5200;43.236;27.986;2023-03-03T07:53:49;100265.25;;;5.09;100.00
10310;BME280;5200;43.236;27.986;2023-03-03T07:56:26;100266.75;;;5.13;100.00
10310;BME280;5200;43.236;27.986;2023-03-03T07:58:54;100278.72;;;5.30;100.00
10310;BME280;5200;43.236;27.986;2023-03-03T08:01:35;100275.88;;;5.47;100.00
10310;BME280;5200;43.236;27.986;2023-03-03T08:04:12;100263.59;;;5.35;100.00
10310;BME280;5200;43.236;27.986;2023-03-03T08:06:46;100268.28;;;5.30;100.00
10310;BME280;5200;43.236;27.986;2023-03-03T08:09:43;100271.22;;;5.38;100.00
10310;BME280;5200;43.236;27.986;2023-03-03T08:12:27;100248.84;;;5.48;100.00
10310;BME280;5200;43.236;27.986;2023-03-03T08:14:55;100274.63;;;5.80;100.00
10310;BME280;5200;43.236;27.986;2023-03-03T08:17:30;100249.63;;;5.76;100.00
10310;BME280;5200;43.236;27.986;2023-03-03T08:20:00;100276.69;;;6.02;100.00
10310;BME280;5200;43.236;27.986;2023-03-03T08:22:30;100267.50;;;6.09;100.00
10310;BME280;5200;43.236;27.986;2023-03-03T08:25:00;100258.00;;;6.08;100.00
10310;BME280;5200;43.236;27.986;2023-03-03T08:27:27;100253.81;;;6.31;100.00
10310;BME280;5200;43.236;27.986;2023-03-03T08:29:53;100243.91;;;6.49;100.00
10310;BME280;5200;43.236;27.986;2023-03-03T08:32:20;100244.22;;;6.45;100.00
10310;BME280;5200;43.236;27.986;2023-03-03T08:34:48;100255.25;;;6.74;100.00
10310;BME280;5200;43.236;27.986;2023-03-03T08:37:15;100254.03;;;6.54;100.00
10310;BME280;5200;43.236;27.986;2023-03-03T08:39:42;100228.53;;;6.32;100.00
10310;BME280;5200;43.236;27.986;2023-03-03T08:42:09;100263.88;;;6.63;100.00
10310;BME280;5200;43.236;27.986;2023-03-03T08:44:35;100222.19;;;6.86;100.00
10310;BME280;5200;43.236;27.986;2023-03-03T08:47:02;100255.88;;;7.27;100.00
10310;BME280;5200;43.236;27.986;2023-03-03T08:49:29;100252.94;;;7.32;100.00
10310;BME280;5200;43.236;27.986;2023-03-03T08:51:57;100259.31;;;7.28;100.00
10310;BME280;5200;43.236;27.986;2023-03-03T08:54:25;100269.94;;;7.61;100.00
10310;BME280;5200;43.236;27.986;2023-03-03T08:56:52;100272.13;;;7.68;100.00
10310;BME280;5200;43.236;27.986;2023-03-03T08:59:19;100273.41;;;7.86;100.00
10310;BME280;5200;43.236;27.986;2023-03-03T09:01:46;100265.31;;;7.89;100.00
10310;BME280;5200;43.236;27.986;2023-03-03T09:04:13;100272.28;;;8.13;100.00
10310;BME280;5200;43.236;27.986;2023-03-03T09:06:40;100266.97;;;8.37;99.80
10310;BME280;5200;43.236;27.986;2023-03-03T09:09:08;100274.47;;;8.30;98.46
10310;BME280;5200;43.236;27.986;2023-03-03T09:11:35;100274.97;;;8.35;99.62
10310;BME280;5200;43.236;27.986;2023-03-03T09:14:06;100269.09;;;8.32;100.00
10310;BME280;5200;43.236;27.986;2023-03-03T09:16:37;100248.44;;;8.04;99.45
10310;BME280;5200;43.236;27.986;2023-03-03T09:19:17;100256.81;;;7.74;100.00
10310;BME280;5200;43.236;27.986;2023-03-03T09:21:45;100251.13;;;7.56;100.00
10310;BME280;5200;43.236;27.986;2023-03-03T09:24:19;100255.31;;;7.59;100.00
10310;BME280;5200;43.236;27.986;2023-03-03T09:26:49;100236.63;;;7.63;100.00
10310;BME280;5200;43.236;27.986;2023-03-03T09:29:23;100249.53;;;7.78;100.00
10310;BME280;5200;43.236;27.986;2023-03-03T09:31:51;100241.97;;;7.86;100.00
10310;BME280;5200;43.236;27.986;2023-03-03T09:34:20;100242.16;;;7.83;100.00
10310;BME280;5200;43.236;27.986;2023-03-03T09:36:50;100234.84;;;7.88;100.00
10310;BME280;5200;43.236;27.986;2023-03-03T09:39:20;100210.38;;;7.76;100.00
10310;BME280;5200;43.236;27.986;2023-03-03T09:42:13;100237.31;;;7.90;99.62
10310;BME280;5200;43.236;27.986;2023-03-03T09:44:58;100234.75;;;7.66;100.00
10310;BME280;5200;43.236;27.986;2023-03-03T09:47:45;100231.31;;;7.41;100.00
10310;BME280;5200;43.236;27.986;2023-03-03T09:50:27;100234.44;;;7.81;100.00
10310;BME280;5200;43.236;27.986;2023-03-03T09:53:01;100228.91;;;7.97;100.00
10310;BME280;5200;43.236;27.986;2023-03-03T09:55:42;100226.84;;;7.54;100.00
10310;BME280;5200;43.236;27.986;2023-03-03T09:58:36;100223.56;;;7.39;100.00
10310;BME280;5200;43.236;27.986;2023-03-03T10:01:38;100204.38;;;7.63;100.00
10310;BME280;5200;43.236;27.986;2023-03-03T10:07:25;100192.97;;;7.75;100.00
10310;BME280;5200;43.236;27.986;2023-03-03T10:10:24;100195.91;;;7.59;100.00
10310;BME280;5200;43.236;27.986;2023-03-03T10:13:13;100201.13;;;7.48;100.00
10310;BME280;5200;43.236;27.986;2023-03-03T10:15:50;100186.28;;;7.36;100.00
10310;BME280;5200;43.236;27.986;2023-03-03T10:18:28;100185.19;;;7.51;100.00
10310;BME280;5200;43.236;27.986;2023-03-03T10:21:08;100178.72;;;7.44;100.00
10310;BME280;5200;43.236;27.986;2023-03-03T10:26:41;100173.47;;;7.79;100.00
10310;BME280;5200;43.236;27.986;2023-03-03T10:29:19;100168.28;;;8.02;100.00
10310;BME280;5200;43.236;27.986;2023-03-03T10:31:57;100167.94;;;8.18;98.43
10310;BME280;5200;43.236;27.986;2023-03-03T10:34:47;100164.72;;;8.03;99.32
10310;BME280;5200;43.236;27.986;2023-03-03T10:37:23;100168.66;;;7.97;100.00
10310;BME280;5200;43.236;27.986;2023-03-03T10:40:10;100166.84;;;7.98;99.57
10310;BME280;5200;43.236;27.986;2023-03-03T10:42:54;100167.44;;;8.01;99.96
10310;BME280;5200;43.236;27.986;2023-03-03T10:45:39;100159.59;;;8.35;100.00
10310;BME280;5200;43.236;27.986;2023-03-03T10:48:19;100148.66;;;8.41;98.83
10310;BME280;5200;43.236;27.986;2023-03-03T10:50:54;100158.16;;;8.09;99.41
10310;BME280;5200;43.236;27.986;2023-03-03T10:53:29;100155.25;;;7.78;100.00
10310;BME280;5200;43.236;27.986;2023-03-03T10:56:19;100150.28;;;7.86;100.00
10310;BME280;5200;43.236;27.986;2023-03-03T10:58:57;100151.00;;;7.99;100.00
10310;BME280;5200;43.236;27.986;2023-03-03T11:01:39;100149.47;;;8.19;100.00
10310;BME280;5200;43.236;27.986;2023-03-03T11:04:33;100154.81;;;8.63;98.59
10310;BME280;5200;43.236;27.986;2023-03-03T11:07:09;100144.09;;;8.77;96.64
10310;BME280;5200;43.236;27.986;2023-03-03T11:09:46;100142.50;;;8.86;95.12
10310;BME280;5200;43.236;27.986;2023-03-03T11:12:27;100127.03;;;9.15;95.08
10310;BME280;5200;43.236;27.986;2023-03-03T11:15:12;100122.03;;;9.12;93.07
10310;BME280;5200;43.236;27.986;2023-03-03T11:17:53;100119.56;;;8.99;94.26
10310;BME280;5200;43.236;27.986;2023-03-03T11:20:31;100119.94;;;8.95;92.80
10310;BME280;5200;43.236;27.986;2023-03-03T11:23:03;100111.63;;;8.89;93.46
10310;BME280;5200;43.236;27.986;2023-03-03T11:25:38;100107.41;;;8.55;94.47
10310;BME280;5200;43.236;27.986;2023-03-03T11:28:30;100100.75;;;8.28;96.51
10310;BME280;5200;43.236;27.986;2023-03-03T11:31:09;100093.50;;;7.98;98.20
10310;BME280;5200;43.236;27.986;2023-03-03T11:33:45;100086.22;;;8.13;98.23
10310;BME280;5200;43.236;27.986;2023-03-03T11:36:19;100086.94;;;8.26;98.36
10310;BME280;5200;43.236;27.986;2023-03-03T11:38:53;100093.47;;;8.32;98.82
10310;BME280;5200;43.236;27.986;2023-03-03T11:41:29;100096.44;;;8.38;99.17
10310;BME280;5200;43.236;27.986;2023-03-03T11:44:02;100076.44;;;8.03;99.90
10310;BME280;5200;43.236;27.986;2023-03-03T11:46:34;100090.97;;;7.96;98.02
10310;BME280;5200;43.236;27.986;2023-03-03T11:49:07;100074.16;;;7.88;100.00
10310;BME280;5200;43.236;27.986;2023-03-03T11:51:46;100069.78;;;7.77;100.00
10310;BME280;5200;43.236;27.986;2023-03-03T11:54:19;100071.88;;;7.49;100.00
10310;BME280;5200;43.236;27.986;2023-03-03T11:56:47;100075.34;;;7.61;100.00
10310;BME280;5200;43.236;27.986;2023-03-03T11:59:41;100069.78;;;7.19;100.00
10310;BME280;5200;43.236;27.986;2023-03-03T12:02:23;100067.78;;;7.23;100.00
10310;BME280;5200;43.236;27.986;2023-03-03T12:04:58;100065.19;;;7.45;100.00
10310;BME280;5200;43.236;27.986;2023-03-03T12:07:38;100077.78;;;7.29;100.00
10310;BME280;5200;43.236;27.986;2023-03-03T12:10:16;100076.63;;;7.44;100.00
10310;BME280;5200;43.236;27.986;2023-03-03T12:12:52;100075.19;;;7.40;100.00
10310;BME280;5200;43.236;27.986;2023-03-03T12:15:26;100073.75;;;7.25;100.00
10310;BME280;5200;43.236;27.986;2023-03-03T12:18:18;100076.59;;;7.33;100.00
10310;BME280;5200;43.236;27.986;2023-03-03T12:20:59;100061.16;;;7.52;100.00
10310;BME280;5200;43.236;27.986;2023-03-03T12:23:42;100065.47;;;7.76;100.00
10310;BME280;5200;43.236;27.986;2023-03-03T12:26:15;100062.16;;;7.85;100.00
10310;BME280;5200;43.236;27.986;2023-03-03T12:28:49;100068.56;;;7.58;100.00
10310;BME280;5200;43.236;27.986;2023-03-03T12:31:37;100064.75;;;7.51;100.00
10310;BME280;5200;43.236;27.986;2023-03-03T12:34:11;100075.50;;;7.24;100.00
10310;BME280;5200;43.236;27.986;2023-03-03T12:37:01;100066.09;;;7.10;100.00
10310;BME280;5200;43.236;27.986;2023-03-03T12:39:41;100065.94;;;7.12;100.00
10310;BME280;5200;43.236;27.986;2023-03-03T12:42:15;100074.63;;;7.12;100.00
10310;BME280;5200;43.236;27.986;2023-03-03T12:44:47;100071.75;;;7.04;100.00
10310;BME280;5200;43.236;27.986;2023-03-03T12:47:26;100079.59;;;7.04;100.00
10310;BME280;5200;43.236;27.986;2023-03-03T12:50:02;100068.41;;;7.02;100.00
10310;BME280;5200;43.236;27.986;2023-03-03T12:52:45;100062.22;;;6.92;100.00
10310;BME280;5200;43.236;27.986;2023-03-03T12:55:19;100067.63;;;6.89;100.00
10310;BME280;5200;43.236;27.986;2023-03-03T12:57:55;100073.16;;;6.97;100.00
10310;BME280;5200;43.236;27.986;2023-03-03T13:00:29;100044.28;;;6.98;100.00
10310;BME280;5200;43.236;27.986;2023-03-03T13:03:08;100061.34;;;6.91;100.00
10310;BME280;5200;43.236;27.986;2023-03-03T13:05:50;100064.16;;;7.01;100.00
10310;BME280;5200;43.236;27.986;2023-03-03T13:08:32;100055.56;;;6.99;100.00
10310;BME280;5200;43.236;27.986;2023-03-03T13:11:07;100059.47;;;6.93;100.00
10310;BME280;5200;43.236;27.986;2023-03-03T13:13:45;100060.56;;;7.02;100.00
10310;BME280;5200;43.236;27.986;2023-03-03T13:16:22;100059.63;;;7.03;100.00
10310;BME280;5200;43.236;27.986;2023-03-03T13:18:55;100048.00;;;7.18;100.00
10310;BME280;5200;43.236;27.986;2023-03-03T13:21:25;100050.81;;;7.39;100.00
10310;BME280;5200;43.236;27.986;2023-03-03T13:24:05;100057.13;;;7.48;100.00